sensor_id;sensor_type;location;lat;lon;timestamp;pressure;altitude;pressure_sealevel;temperature;humidity
52249;BME280;38541;48.130;8.378;2023-03-13T00:01:36;92312.72;;;7.60;69.63
52249;BME280;38541;48.130;8.378;2023-03-13T00:04:04;92311.16;;;7.59;70.21
52249;BME280;38541;48.130;8.378;2023-03-13T00:06:35;92306.47;;;7.61;70.26
52249;BME280;38541;48.130;8.378;2023-03-13T00:09:05;92316.13;;;7.65;70.22
52249;BME280;38541;48.130;8.378;2023-03-13T00:11:32;92316.94;;;7.66;70.11
52249;BME280;38541;48.130;8.378;2023-03-13T00:14:01;92313.03;;;7.68;70.43
52249;BME280;38541;48.130;8.378;2023-03-13T00:16:28;92318.75;;;7.65;70.53
52249;BME280;38541;48.130;8.378;2023-03-13T00:18:56;92315.09;;;7.66;71.10
52249;BME280;38541;48.130;8.378;2023-03-13T00:21:25;92317.47;;;7.68;70.81
52249;BME280;38541;48.130;8.378;2023-03-13T00:23:52;92323.50;;;7.68;71.16
52249;BME280;38541;48.130;8.378;2023-03-13T00:26:21;92316.72;;;7.73;71.08
52249;BME280;38541;48.130;8.378;2023-03-13T00:28:48;92312.00;;;7.75;71.28
52249;BME280;38541;48.130;8.378;2023-03-13T00:31:18;92309.94;;;7.77;71.26
52249;BME280;38541;48.130;8.378;2023-03-13T00:33:51;92314.63;;;7.80;71.14
52249;BME280;38541;48.130;8.378;2023-03-13T00:36:20;92309.94;;;7.82;71.24
52249;BME280;38541;48.130;8.378;2023-03-13T00:38:47;92304.19;;;7.85;71.61
52249;BME280;38541;48.130;8.378;2023-03-13T00:41:22;92315.22;;;7.87;71.46
52249;BME280;38541;48.130;8.378;2023-03-13T00:43:50;92314.94;;;7.89;71.30
52249;BME280;38541;48.130;8.378;2023-03-13T00:46:19;92310.00;;;7.92;71.41
52249;BME280;38541;48.130;8.378;2023-03-13T00:48:46;92297.97;;;7.96;71.22
52249;BME280;38541;48.130;8.378;2023-03-13T00:51:14;92310.81;;;8.03;71.22
52249;BME280;38541;48.130;8.378;2023-03-13T00:53:41;92308.97;;;8.04;71.77
52249;BME280;38541;48.130;8.378;2023-03-13T00:56:11;92309.53;;;8.06;71.85
52249;BME280;38541;48.130;8.378;2023-03-13T00:58:40;92303.25;;;8.07;71.41
52249;BME280;38541;48.130;8.378;2023-03-13T01:01:20;92292.78;;;8.07;71.96
52249;BME280;38541;48.130;8.378;2023-03-13T01:03:54;92307.16;;;8.09;71.97
52249;BME280;38541;48.130;8.378;2023-03-13T01:06:24;92310.06;;;8.08;72.08
52249;BME280;38541;48.130;8.378;2023-03-13T01:08:51;92292.28;;;8.15;72.09
52249;BME280;38541;48.130;8.378;2023-03-13T01:11:24;92301.69;;;8.21;71.76
52249;BME280;38541;48.130;8.378;2023-03-13T01:13:56;92294.66;;;8.22;71.40
52249;BME280;38541;48.130;8.378;2023-03-13T01:16:25;92295.41;;;8.22;71.98
52249;BME280;38541;48.130;8.378;2023-03-13T01:18:54;92289.13;;;8.23;71.66
52249;BME280;38541;48.130;8.378;2023-03-13T01:21:22;92286.78;;;8.22;71.90
52249;BME280;38541;48.130;8.378;2023-03-13T01:23:50;92288.13;;;8.30;71.75
52249;BME280;38541;48.130;8.378;2023-03-13T01:26:17;92298.84;;;8.33;71.55
52249;BME280;38541;48.130;8.378;2023-03-13T01:28:44;92285.50;;;8.35;71.58
52249;BME280;38541;48.130;8.378;2023-03-13T01:31:25;92275.84;;;8.40;71.95
52249;BME280;38541;48.130;8.378;2023-03-13T01:34:00;92261.69;;;8.41;71.79
52249;BME280;38541;48.130;8.378;2023-03-13T01:36:28;92274.78;;;8.41;72.09
52249;BME280;38541;48.130;8.378;2023-03-13T01:38:56;92280.78;;;8.42;71.99
52249;BME280;38541;48.130;8.378;2023-03-13T01:41:25;92281.34;;;8.44;71.81
52249;BME280;38541;48.130;8.378;2023-03-13T01:43:52;92286.59;;;8.44;72.19
52249;BME280;38541;48.130;8.378;2023-03-13T01:46:25;92279.53;;;8.50;72.06
52249;BME280;38541;48.130;8.378;2023-03-13T01:49:02;92302.81;;;8.46;72.30
52249;BME280;38541;48.130;8.378;2023-03-13T01:51:44;92293.91;;;8.47;72.17
52249;BME280;38541;48.130;8.378;2023-03-13T01:57:12;92295.50;;;8.53;72.34
52249;BME280;38541;48.130;8.378;2023-03-13T01:59:44;92296.03;;;8.50;73.12
52249;BME280;38541;48.130;8.378;2023-03-13T02:02:14;92275.84;;;8.46;72.92
52249;BME280;38541;48.130;8.378;2023-03-13T02:04:44;92289.97;;;8.45;73.44
52249;BME280;38541;48.130;8.378;2023-03-13T02:07:17;92274.78;;;8.47;73.24
52249;BME280;38541;48.130;8.378;2023-03-13T02:09:49;92257.25;;;8.42;74.02
52249;BME280;38541;48.130;8.378;2023-03-13T02:12:23;92257.50;;;8.46;74.19
52249;BME280;38541;48.130;8.378;2023-03-13T02:14:52;92242.59;;;8.46;73.73
52249;BME280;38541;48.130;8.378;2023-03-13T02:17:19;92247.84;;;8.46;73.82
52249;BME280;38541;48.130;8.378;2023-03-13T02:19:48;92243.63;;;8.40;74.04
52249;BME280;38541;48.130;8.378;2023-03-13T02:27:42;92238.41;;;8.40;75.56
52249;BME280;38541;48.130;8.378;2023-03-13T02:30:11;92237.34;;;8.36;76.53
52249;BME280;38541;48.130;8.378;2023-03-13T02:32:38;92241.00;;;8.35;77.05
52249;BME280;38541;48.130;8.378;2023-03-13T02:35:08;92221.66;;;8.31;77.58
52249;BME280;38541;48.130;8.378;2023-03-13T02:37:35;92215.38;;;8.32;77.93
52249;BME280;38541;48.130;8.378;2023-03-13T02:40:07;92209.59;;;8.35;77.88
52249;BME280;38541;48.130;8.378;2023-03-13T02:42:38;92218.78;;;8.37;77.72
52249;BME280;38541;48.130;8.378;2023-03-13T02:45:06;92209.59;;;8.35;78.34
52249;BME280;38541;48.130;8.378;2023-03-13T02:47:33;92220.06;;;8.35;78.41
52249;BME280;38541;48.130;8.378;2023-03-13T02:49:59;92205.94;;;8.36;78.58
52249;BME280;38541;48.130;8.378;2023-03-13T02:52:28;92209.09;;;8.38;78.18
52249;BME280;38541;48.130;8.378;2023-03-13T02:55:02;92209.09;;;8.38;78.23
52249;BME280;38541;48.130;8.378;2023-03-13T02:57:30;92200.72;;;8.36;77.95
52249;BME280;38541;48.130;8.378;2023-03-13T02:59:57;92188.94;;;8.43;77.81
52249;BME280;38541;48.130;8.378;2023-03-13T03:02:24;92178.97;;;8.46;77.19
52249;BME280;38541;48.130;8.378;2023-03-13T03:04:52;92181.84;;;8.39;77.14
52249;BME280;38541;48.130;8.378;2023-03-13T03:07:18;92186.56;;;8.42;77.38
52249;BME280;38541;48.130;8.378;2023-03-13T03:09:45;92188.41;;;8.47;77.27
52249;BME280;38541;48.130;8.378;2023-03-13T03:12:16;92189.97;;;8.42;76.94
52249;BME280;38541;48.130;8.378;2023-03-13T03:14:43;92191.56;;;8.43;77.09
52249;BME280;38541;48.130;8.378;2023-03-13T03:21:23;92187.66;;;8.51;76.47
52249;BME280;38541;48.130;8.378;2023-03-13T03:23:50;92192.88;;;8.51;76.67
52249;BME280;38541;48.130;8.378;2023-03-13T03:26:17;92186.84;;;8.51;76.61
52249;BME280;38541;48.130;8.378;2023-03-13T03:28:44;92190.03;;;8.53;76.01
52249;BME280;38541;48.130;8.378;2023-03-13T03:31:14;92188.97;;;8.54;75.98
52249;BME280;38541;48.130;8.378;2023-03-13T03:33:42;92187.09;;;8.49;75.98
52249;BME280;38541;48.130;8.378;2023-03-13T03:36:17;92185.00;;;8.46;76.41
52249;BME280;38541;48.130;8.378;2023-03-13T03:38:45;92177.19;;;8.51;76.45
52249;BME280;38541;48.130;8.378;2023-03-13T03:41:14;92176.41;;;8.56;76.55
52249;BME280;38541;48.130;8.378;2023-03-13T03:43:42;92167.75;;;8.55;75.78
52249;BME280;38541;48.130;8.378;2023-03-13T03:46:11;92169.31;;;8.62;76.12
52249;BME280;38541;48.130;8.378;2023-03-13T03:48:37;92166.19;;;8.65;76.14
52249;BME280;38541;48.130;8.378;2023-03-13T03:51:06;92169.84;;;8.64;75.81
52249;BME280;38541;48.130;8.378;2023-03-13T03:53:36;92185.03;;;8.67;75.80
52249;BME280;38541;48.130;8.378;2023-03-13T03:56:03;92175.59;;;8.71;75.42
52249;BME280;38541;48.130;8.378;2023-03-13T03:58:30;92176.63;;;8.75;75.67
52249;BME280;38541;48.130;8.378;2023-03-13T04:01:05;92174.78;;;8.70;75.32
52249;BME280;38541;48.130;8.378;2023-03-13T04:03:31;92186.06;;;8.71;75.58
52249;BME280;38541;48.130;8.378;2023-03-13T04:05:58;92184.50;;;8.70;75.28
52249;BME280;38541;48.130;8.378;2023-03-13T04:08:25;92175.31;;;8.67;75.49
52249;BME280;38541;48.130;8.378;2023-03-13T04:10:52;92176.13;;;8.68;75.67
52249;BME280;38541;48.130;8.378;2023-03-13T04:13:21;92165.38;;;8.69;75.80
52249;BME280;38541;48.130;8.378;2023-03-13T04:15:48;92162.75;;;8.69;76.61
52249;BME280;38541;48.130;8.378;2023-03-13T04:18:16;92158.84;;;8.67;76.84
52249;BME280;38541;48.130;8.378;2023-03-13T04:20:43;92160.94;;;8.65;77.44
52249;BME280;38541;48.130;8.378;2023-03-13T04:23:10;92155.19;;;8.68;77.19
52249;BME280;38541;48.130;8.378;2023-03-13T04:25:37;92157.81;;;8.63;77.38
52249;BME280;38541;48.130;8.378;2023-03-13T04:28:07;92148.38;;;8.67;77.53
52249;BME280;38541;48.130;8.378;2023-03-13T04:30:39;92149.94;;;8.68;77.47
52249;BME280;38541;48.130;8.378;2023-03-13T04:33:20;92156.75;;;8.64;77.53
52249;BME280;38541;48.130;8.378;2023-03-13T04:36:03;92144.16;;;8.61;77.88
52249;BME280;38541;48.130;8.378;2023-03-13T04:38:44;92152.03;;;8.55;77.89
52249;BME280;38541;48.130;8.378;2023-03-13T04:41:29;92152.31;;;8.54;78.20
52249;BME280;38541;48.130;8.378;2023-03-13T04:44:12;92153.88;;;8.55;78.26
52249;BME280;38541;48.130;8.378;2023-03-13T04:47:02;92132.13;;;8.60;78.38
52249;BME280;38541;48.130;8.378;2023-03-13T04:49:48;92141.03;;;8.69;77.95
52249;BME280;38541;48.130;8.378;2023-03-13T04:52:34;92145.22;;;8.60;77.74
52249;BME280;38541;48.130;8.378;2023-03-13T04:55:11;92137.63;;;8.63;77.96
52249;BME280;38541;48.130;8.378;2023-03-13T04:57:55;92140.22;;;8.68;77.59
52249;BME280;38541;48.130;8.378;2023-03-13T05:00:39;92145.22;;;8.65;78.00
52249;BME280;38541;48.130;8.378;2023-03-13T05:03:18;92145.22;;;8.65;78.33
52249;BME280;38541;48.130;8.378;2023-03-13T05:06:05;92157.28;;;8.66;78.71
52249;BME280;38541;48.130;8.378;2023-03-13T05:08:50;92145.22;;;8.60;78.74
52249;BME280;38541;48.130;8.378;2023-03-13T05:11:25;92152.56;;;8.63;78.58
52249;BME280;38541;48.130;8.378;2023-03-13T05:14:10;92143.38;;;8.70;78.84
52249;BME280;38541;48.130;8.378;2023-03-13T05:16:47;92149.41;;;8.71;78.32
52249;BME280;38541;48.130;8.378;2023-03-13T05:19:49;92138.66;;;8.67;78.42
52249;BME280;38541;48.130;8.378;2023-03-13T05:22:24;92143.13;;;8.67;79.26
52249;BME280;38541;48.130;8.378;2023-03-13T05:25:13;92134.75;;;8.70;79.08
52249;BME280;38541;48.130;8.378;2023-03-13T05:27:52;92132.38;;;8.79;79.56
52249;BME280;38541;48.130;8.378;2023-03-13T05:30:44;92140.47;;;8.88;78.91
52249;BME280;38541;48.130;8.378;2023-03-13T05:33:31;92147.28;;;8.83;79.22
52249;BME280;38541;48.130;8.378;2023-03-13T05:36:18;92143.63;;;8.79;79.54
52249;BME280;38541;48.130;8.378;2023-03-13T05:39:16;92144.38;;;8.90;79.39
52249;BME280;38541;48.130;8.378;2023-03-13T05:41:45;92144.41;;;8.85;79.57
52249;BME280;38541;48.130;8.378;2023-03-13T05:44:44;92151.97;;;8.92;79.64
52249;BME280;38541;48.130;8.378;2023-03-13T05:47:49;92151.22;;;8.91;79.57
52249;BME280;38541;48.130;8.378;2023-03-13T05:50:34;92136.78;;;8.94;79.88
52249;BME280;38541;48.130;8.378;2023-03-13T05:53:19;92140.19;;;8.94;80.34
52249;BME280;38541;48.130;8.378;2023-03-13T05:55:48;92136.25;;;8.97;80.25
52249;BME280;38541;48.130;8.378;2023-03-13T05:58:34;92116.06;;;8.97;80.10
52249;BME280;38541;48.130;8.378;2023-03-13T06:01:14;92116.63;;;8.94;80.69
52249;BME280;38541;48.130;8.378;2023-03-13T06:03:53;92128.88;;;8.99;80.85
52249;BME280;38541;48.130;8.378;2023-03-13T06:06:21;92117.09;;;9.02;81.12
52249;BME280;38541;48.130;8.378;2023-03-13T06:08:51;92120.75;;;9.06;81.39
52249;BME280;38541;48.130;8.378;2023-03-13T06:11:20;92142.50;;;9.06;81.32
52249;BME280;38541;48.130;8.378;2023-03-13T06:13:46;92134.69;;;9.01;81.45
52249;BME280;38541;48.130;8.378;2023-03-13T06:16:23;92143.03;;;8.98;81.91
52249;BME280;38541;48.130;8.378;2023-03-13T06:18:52;92133.09;;;9.05;82.35
52249;BME280;38541;48.130;8.378;2023-03-13T06:21:18;92138.31;;;9.05;82.02
52249;BME280;38541;48.130;8.378;2023-03-13T06:23:45;92146.41;;;9.09;82.43
52249;BME280;38541;48.130;8.378;2023-03-13T06:26:11;92163.19;;;9.18;81.98
52249;BME280;38541;48.130;8.378;2023-03-13T06:28:38;92169.22;;;9.08;81.88
52249;BME280;38541;48.130;8.378;2023-03-13T06:31:06;92177.88;;;9.04;82.28
52249;BME280;38541;48.130;8.378;2023-03-13T06:33:33;92145.13;;;9.06;82.41
52249;BME280;38541;48.130;8.378;2023-03-13T06:36:00;92148.53;;;9.12;82.09
52249;BME280;38541;48.130;8.378;2023-03-13T06:38:27;92141.97;;;9.09;82.04
52249;BME280;38541;48.130;8.378;2023-03-13T06:40:54;92152.44;;;9.09;81.76
52249;BME280;38541;48.130;8.378;2023-03-13T06:43:21;92144.56;;;9.14;81.73
52249;BME280;38541;48.130;8.378;2023-03-13T06:45:48;92132.53;;;9.13;81.50
52249;BME280;38541;48.130;8.378;2023-03-13T06:48:14;92134.59;;;9.17;82.00
52249;BME280;38541;48.130;8.378;2023-03-13T06:50:41;92121.25;;;9.18;81.84
52249;BME280;38541;48.130;8.378;2023-03-13T06:53:19;92135.63;;;9.26;81.81
52249;BME280;38541;48.130;8.378;2023-03-13T06:55:46;92128.03;;;9.30;81.33
52249;BME280;38541;48.130;8.378;2023-03-13T06:58:12;92121.94;;;9.39;81.39
52249;BME280;38541;48.130;8.378;2023-03-13T07:00:56;92130.31;;;9.41;81.32
52249;BME280;38541;48.130;8.378;2023-03-13T07:03:22;92128.22;;;9.44;80.98
52249;BME280;38541;48.130;8.378;2023-03-13T07:05:55;92142.91;;;9.39;80.88
52249;BME280;38541;48.130;8.378;2023-03-13T07:08:22;92151.84;;;9.33;81.46
52249;BME280;38541;48.130;8.378;2023-03-13T07:10:51;92152.34;;;9.35;81.38
52249;BME280;38541;48.130;8.378;2023-03-13T07:13:18;92160.22;;;9.35;81.66
52249;BME280;38541;48.130;8.378;2023-03-13T07:15:46;92145.31;;;9.31;81.93
52249;BME280;38541;48.130;8.378;2023-03-13T07:18:16;92149.72;;;9.40;81.63
52249;BME280;38541;48.130;8.378;2023-03-13T07:20:43;92163.38;;;9.32;81.98
52249;BME280;38541;48.130;8.378;2023-03-13T07:23:09;92161.56;;;9.33;82.11
52249;BME280;38541;48.130;8.378;2023-03-13T07:25:36;92174.41;;;9.29;82.54
52249;BME280;38541;48.130;8.378;2023-03-13T07:28:03;92179.91;;;9.27;82.72
52249;BME280;38541;48.130;8.378;2023-03-13T07:30:29;92181.25;;;9.25;83.03
52249;BME280;38541;48.130;8.378;2023-03-13T07:32:57;92160.53;;;9.28;83.08
52249;BME280;38541;48.130;8.378;2023-03-13T07:35:23;92176.78;;;9.20;83.39
52249;BME280;38541;48.130;8.378;2023-03-13T07:37:51;92158.69;;;9.19;83.73
52249;BME280;38541;48.130;8.378;2023-03-13T07:40:17;92152.66;;;9.23;83.49
52249;BME280;38541;48.130;8.378;2023-03-13T07:42:44;92166.56;;;9.24;83.33
52249;BME280;38541;48.130;8.378;2023-03-13T07:45:10;92147.72;;;9.22;83.27
52249;BME280;38541;48.130;8.378;2023-03-13T07:47:37;92156.31;;;9.27;82.79
52249;BME280;38541;48.130;8.378;2023-03-13T07:50:04;92140.84;;;9.31;82.72
52249;BME280;38541;48.130;8.378;2023-03-13T07:52:31;92149.19;;;9.44;82.39
52249;BME280;38541;48.130;8.378;2023-03-13T07:54:57;92167.78;;;9.42;82.21
52249;BME280;38541;48.130;8.378;2023-03-13T07:57:24;92155.75;;;9.41;81.72
52249;BME280;38541;48.130;8.378;2023-03-13T07:59:51;92164.13;;;9.43;81.84
52249;BME280;38541;48.130;8.378;2023-03-13T08:02:18;92144.47;;;9.46;81.12
52249;BME280;38541;48.130;8.378;2023-03-13T08:04:44;92147.56;;;9.53;80.62
52249;BME280;38541;48.130;8.378;2023-03-13T08:07:11;92114.69;;;9.66;80.89
52249;BME280;38541;48.130;8.378;2023-03-13T08:09:38;92112.25;;;9.85;79.13
52249;BME280;38541;48.130;8.378;2023-03-13T08:12:06;92128.19;;;9.94;78.53
52249;BME280;38541;48.130;8.378;2023-03-13T08:14:33;92110.69;;;10.19;78.40
52249;BME280;38541;48.130;8.378;2023-03-13T08:16:59;92112.50;;;10.23;77.01
52249;BME280;38541;48.130;8.378;2023-03-13T08:19:26;92102.50;;;10.25;76.59
52249;BME280;38541;48.130;8.378;2023-03-13T08:21:52;92111.16;;;10.26;76.41
52249;BME280;38541;48.130;8.378;2023-03-13T08:24:19;92109.84;;;10.23;75.46
52249;BME280;38541;48.130;8.378;2023-03-13T08:26:45;92107.47;;;10.27;75.64
52249;BME280;38541;48.130;8.378;2023-03-13T08:29:13;92109.03;;;10.28;75.24
52249;BME280;38541;48.130;8.378;2023-03-13T08:31:45;92082.50;;;10.30;75.34
52249;BME280;38541;48.130;8.378;2023-03-13T08:34:14;92078.00;;;10.35;75.35
52249;BME280;38541;48.130;8.378;2023-03-13T08:36:41;92074.53;;;10.40;74.24
52249;BME280;38541;48.130;8.378;2023-03-13T08:39:15;92089.56;;;10.34;73.92
52249;BME280;38541;48.130;8.378;2023-03-13T08:41:42;92072.19;;;10.44;74.03
52249;BME280;38541;48.130;8.378;2023-03-13T08:44:11;92086.88;;;10.45;73.48
52249;BME280;38541;48.130;8.378;2023-03-13T08:46:38;92089.78;;;10.43;73.06
52249;BME280;38541;48.130;8.378;2023-03-13T08:49:06;92076.56;;;10.48;72.90
52249;BME280;38541;48.130;8.378;2023-03-13T08:51:34;92079.63;;;10.61;72.99
52249;BME280;38541;48.130;8.378;2023-03-13T08:54:01;92054.28;;;10.70;72.10
52249;BME280;38541;48.130;8.378;2023-03-13T08:56:29;92076.28;;;10.79;72.06
52249;BME280;38541;48.130;8.378;2023-03-13T08:58:58;92064.06;;;10.89;72.08
52249;BME280;38541;48.130;8.378;2023-03-13T09:01:30;92082.63;;;10.97;70.88
52249;BME280;38541;48.130;8.378;2023-03-13T09:03:56;92065.53;;;11.00;71.63
52249;BME280;38541;48.130;8.378;2023-03-13T09:06:27;92074.53;;;11.18;71.16
52249;BME280;38541;48.130;8.378;2023-03-13T09:08:55;92073.47;;;11.38;70.51
52249;BME280;38541;48.130;8.378;2023-03-13T09:11:22;92083.56;;;11.50;69.50
52249;BME280;38541;48.130;8.378;2023-03-13T09:13:49;92048.81;;;11.53;69.63
52249;BME280;38541;48.130;8.378;2023-03-13T09:16:19;92053.22;;;11.58;69.58
52249;BME280;38541;48.130;8.378;2023-03-13T09:18:46;92048.38;;;11.65;68.85
52249;BME280;38541;48.130;8.378;2023-03-13T09:21:18;92060.25;;;11.82;68.56
52249;BME280;38541;48.130;8.378;2023-03-13T09:23:45;92046.09;;;11.97;67.76
52249;BME280;38541;48.130;8.378;2023-03-13T09:26:13;92047.38;;;11.80;68.03
52249;BME280;38541;48.130;8.378;2023-03-13T09:28:40;92057.09;;;11.99;67.75
52249;BME280;38541;48.130;8.378;2023-03-13T09:31:15;92066.28;;;12.02;67.96
52249;BME280;38541;48.130;8.378;2023-03-13T09:33:43;92043.78;;;12.09;66.61
52249;BME280;38541;48.130;8.378;2023-03-13T09:36:10;92052.53;;;12.24;66.96
52249;BME280;38541;48.130;8.378;2023-03-13T09:38:37;92057.22;;;12.41;67.61
52249;BME280;38541;48.130;8.378;2023-03-13T09:41:19;92056.91;;;12.62;65.33
52249;BME280;38541;48.130;8.378;2023-03-13T09:43:54;92042.53;;;12.96;65.44
52249;BME280;38541;48.130;8.378;2023-03-13T09:48:55;92039.50;;;13.17;63.90
52249;BME280;38541;48.130;8.378;2023-03-13T09:51:40;92045.56;;;13.03;63.55
52249;BME280;38541;48.130;8.378;2023-03-13T09:54:25;92036.09;;;13.16;63.95
52249;BME280;38541;48.130;8.378;2023-03-13T09:56:57;92047.13;;;13.18;63.90
52249;BME280;38541;48.130;8.378;2023-03-13T10:01:59;92036.09;;;13.16;62.67
52249;BME280;38541;48.130;8.378;2023-03-13T10:04:44;92023.09;;;13.20;62.53
52249;BME280;38541;48.130;8.378;2023-03-13T10:07:13;92011.53;;;13.44;62.88
52249;BME280;38541;48.130;8.378;2023-03-13T10:09:39;92029.28;;;13.66;62.40
52249;BME280;38541;48.130;8.378;2023-03-13T10:12:18;92023.56;;;13.73;61.21
52249;BME280;38541;48.130;8.378;2023-03-13T10:14:59;92024.88;;;13.61;61.40
52249;BME280;38541;48.130;8.378;2023-03-13T10:17:37;92017.03;;;13.70;61.10
52249;BME280;38541;48.130;8.378;2023-03-13T10:20:33;92007.25;;;13.70;59.86
52249;BME280;38541;48.130;8.378;2023-03-13T10:23:07;91999.44;;;13.88;61.32
52249;BME280;38541;48.130;8.378;2023-03-13T10:25:38;91998.25;;;13.94;59.62
52249;BME280;38541;48.130;8.378;2023-03-13T10:28:09;91990.44;;;14.12;59.75
52249;BME280;38541;48.130;8.378;2023-03-13T10:30:37;91984.03;;;14.36;58.30
52249;BME280;38541;48.130;8.378;2023-03-13T10:35:42;91987.22;;;14.55;57.39
52249;BME280;38541;48.130;8.378;2023-03-13T10:38:14;91974.28;;;14.45;57.27
52249;BME280;38541;48.130;8.378;2023-03-13T10:40:42;91980.03;;;14.47;57.54
52249;BME280;38541;48.130;8.378;2023-03-13T10:43:16;91965.00;;;14.57;56.38
52249;BME280;38541;48.130;8.378;2023-03-13T10:45:46;91954.13;;;14.67;56.53
52249;BME280;38541;48.130;8.378;2023-03-13T10:48:14;91962.31;;;14.48;56.55
52249;BME280;38541;48.130;8.378;2023-03-13T10:50:46;91949.44;;;14.55;57.17
52249;BME280;38541;48.130;8.378;2023-03-13T10:56:13;91941.13;;;14.79;55.14
52249;BME280;38541;48.130;8.378;2023-03-13T10:58:47;91924.69;;;15.35;55.37
52249;BME280;38541;48.130;8.378;2023-03-13T11:01:23;91916.59;;;15.58;54.76
52249;BME280;38541;48.130;8.378;2023-03-13T11:03:52;91922.03;;;15.71;53.41
52249;BME280;38541;48.130;8.378;2023-03-13T11:06:29;91914.28;;;15.57;55.14
52249;BME280;38541;48.130;8.378;2023-03-13T11:09:06;91906.59;;;15.73;54.89
52249;BME280;38541;48.130;8.378;2023-03-13T11:12:04;91905.03;;;15.89;52.98
52249;BME280;38541;48.130;8.378;2023-03-13T11:14:30;91903.41;;;16.15;53.15
52249;BME280;38541;48.130;8.378;2023-03-13T11:17:04;91894.88;;;16.39;51.51
52249;BME280;38541;48.130;8.378;2023-03-13T11:25:03;91884.88;;;16.45;49.92
52249;BME280;38541;48.130;8.378;2023-03-13T11:27:43;91914.84;;;16.45;49.40
52249;BME280;38541;48.130;8.378;2023-03-13T11:35:49;91869.56;;;16.80;49.73
52249;BME280;38541;48.130;8.378;2023-03-13T11:38:27;91851.97;;;16.97;47.51
52249;BME280;38541;48.130;8.378;2023-03-13T11:41:16;91843.88;;;17.15;47.71
52249;BME280;38541;48.130;8.378;2023-03-13T11:43:57;91828.63;;;17.11;47.19
52249;BME280;38541;48.130;8.378;2023-03-13T11:49:29;91818.97;;;17.28;47.76
52249;BME280;38541;48.130;8.378;2023-03-13T11:52:11;91812.72;;;17.45;47.20
52249;BME280;38541;48.130;8.378;2023-03-13T11:57:46;91802.00;;;17.54;46.06
52249;BME280;38541;48.130;8.378;2023-03-13T12:00:21;91790.59;;;17.53;45.71
52249;BME280;38541;48.130;8.378;2023-03-13T12:03:19;91796.50;;;17.72;44.42
52249;BME280;38541;48.130;8.378;2023-03-13T12:05:53;91788.59;;;18.09;45.69
52249;BME280;38541;48.130;8.378;2023-03-13T12:08:27;91811.19;;;18.15;45.26
52249;BME280;38541;48.130;8.378;2023-03-13T12:16:40;91783.91;;;18.56;42.19
52249;BME280;38541;48.130;8.378;2023-03-13T12:19:11;91769.25;;;18.74;42.76
52249;BME280;38541;48.130;8.378;2023-03-13T12:21:49;91754.09;;;18.62;42.65
52249;BME280;38541;48.130;8.378;2023-03-13T12:26:53;91728.28;;;19.20;42.13
52249;BME280;38541;48.130;8.378;2023-03-13T12:29:30;91756.56;;;19.41;41.21
52249;BME280;38541;48.130;8.378;2023-03-13T12:32:28;91719.41;;;19.16;41.13
52249;BME280;38541;48.130;8.378;2023-03-13T12:37:37;91718.16;;;18.97;39.85
52249;BME280;38541;48.130;8.378;2023-03-13T12:40:22;91707.50;;;18.97;40.42
52249;BME280;38541;48.130;8.378;2023-03-13T12:42:57;91691.34;;;19.34;40.17
52249;BME280;38541;48.130;8.378;2023-03-13T12:45:52;91689.91;;;19.53;37.69
52249;BME280;38541;48.130;8.378;2023-03-13T12:48:42;91669.97;;;19.47;39.35
52249;BME280;38541;48.130;8.378;2023-03-13T12:54:05;91712.84;;;19.42;36.79
52249;BME280;38541;48.130;8.378;2023-03-13T12:56:46;91657.25;;;19.24;38.35
52249;BME280;38541;48.130;8.378;2023-03-13T12:59:29;91651.66;;;19.45;37.89
52249;BME280;38541;48.130;8.378;2023-03-13T13:01:59;91649.16;;;20.01;37.52
52249;BME280;38541;48.130;8.378;2023-03-13T13:04:29;91634.31;;;20.39;36.81
52249;BME280;38541;48.130;8.378;2023-03-13T13:07:02;91634.41;;;21.05;35.77
52249;BME280;38541;48.130;8.378;2023-03-13T13:09:34;91634.78;;;21.04;36.17
52249;BME280;38541;48.130;8.378;2023-03-13T13:12:11;91637.44;;;21.04;35.62
52249;BME280;38541;48.130;8.378;2023-03-13T13:17:21;91611.97;;;20.67;37.70
52249;BME280;38541;48.130;8.378;2023-03-13T13:19:51;91619.81;;;20.79;36.65
52249;BME280;38541;48.130;8.378;2023-03-13T13:32:50;91600.06;;;20.21;37.36
52249;BME280;38541;48.130;8.378;2023-03-13T13:35:26;91606.00;;;20.15;38.54
52249;BME280;38541;48.130;8.378;2023-03-13T13:43:45;91568.78;;;21.04;38.29
52249;BME280;38541;48.130;8.378;2023-03-13T13:46:31;91557.84;;;21.63;35.75
52249;BME280;38541;48.130;8.378;2023-03-13T13:51:38;91563.56;;;21.89;36.03
52249;BME280;38541;48.130;8.378;2023-03-13T13:56:47;91551.00;;;22.58;34.41
52249;BME280;38541;48.130;8.378;2023-03-13T14:01:50;91545.03;;;23.65;32.25
52249;BME280;38541;48.130;8.378;2023-03-13T14:04:53;91546.13;;;23.57;31.85
52249;BME280;38541;48.130;8.378;2023-03-13T14:07:28;91536.38;;;25.15;31.28
52249;BME280;38541;48.130;8.378;2023-03-13T14:10:02;91551.00;;;23.41;31.95
52249;BME280;38541;48.130;8.378;2023-03-13T14:12:34;91527.66;;;24.08;31.85
52249;BME280;38541;48.130;8.378;2023-03-13T14:15:27;91532.97;;;22.89;33.42
52249;BME280;38541;48.130;8.378;2023-03-13T14:17:57;91509.91;;;23.85;32.58
52249;BME280;38541;48.130;8.378;2023-03-13T14:20:30;91519.72;;;23.59;32.46
52249;BME280;38541;48.130;8.378;2023-03-13T14:23:00;91493.47;;;22.41;35.39
52249;BME280;38541;48.130;8.378;2023-03-13T14:25:39;91495.69;;;22.01;36.00
52249;BME280;38541;48.130;8.378;2023-03-13T14:28:25;91503.59;;;21.90;36.03
52249;BME280;38541;48.130;8.378;2023-03-13T14:30:54;91524.78;;;21.75;35.85
52249;BME280;38541;48.130;8.378;2023-03-13T14:33:22;91500.53;;;21.34;37.01
52249;BME280;38541;48.130;8.378;2023-03-13T14:35:49;91481.56;;;21.43;37.21
52249;BME280;38541;48.130;8.378;2023-03-13T14:38:19;91485.66;;;21.06;37.70
52249;BME280;38541;48.130;8.378;2023-03-13T14:40:47;91474.13;;;21.02;38.35
52249;BME280;38541;48.130;8.378;2023-03-13T14:43:31;91468.03;;;21.01;38.35
52249;BME280;38541;48.130;8.378;2023-03-13T14:45:59;91465.19;;;24.15;33.90
52249;BME280;38541;48.130;8.378;2023-03-13T14:48:30;91468.63;;;26.04;31.19
52249;BME280;38541;48.130;8.378;2023-03-13T14:51:07;91470.06;;;23.87;32.43
52249;BME280;38541;48.130;8.378;2023-03-13T14:53:53;91459.88;;;23.41;33.82
52249;BME280;38541;48.130;8.378;2023-03-13T14:56:19;91452.69;;;23.00;34.22